sensor_id;sensor_type;location;lat;lon;timestamp;P1;durP1;ratioP1;P2;durP2;ratioP2
21175;SDS011;10746;50.178;8.186;2023-02-23T00:00:24;42.47;;;20.57;;
21175;SDS011;10746;50.178;8.186;2023-02-23T00:02:53;44.23;;;20.77;;
21175;SDS011;10746;50.178;8.186;2023-02-23T00:05:23;44.73;;;20.67;;
21175;SDS011;10746;50.178;8.186;2023-02-23T00:07:51;38.83;;;20.03;;
21175;SDS011;10746;50.178;8.186;2023-02-23T00:10:19;41.63;;;20.07;;
21175;SDS011;10746;50.178;8.186;2023-02-23T00:12:50;42.87;;;20.50;;
21175;SDS011;10746;50.178;8.186;2023-02-23T00:15:17;38.83;;;20.17;;
21175;SDS011;10746;50.178;8.186;2023-02-23T00:17:44;49.70;;;21.35;;
21175;SDS011;10746;50.178;8.186;2023-02-23T00:20:11;42.40;;;20.67;;
21175;SDS011;10746;50.178;8.186;2023-02-23T00:22:40;40.97;;;19.97;;
21175;SDS011;10746;50.178;8.186;2023-02-23T00:25:09;44.23;;;20.03;;
21175;SDS011;10746;50.178;8.186;2023-02-23T00:27:36;43.92;;;20.70;;
21175;SDS011;10746;50.178;8.186;2023-02-23T00:30:08;52.93;;;21.87;;
21175;SDS011;10746;50.178;8.186;2023-02-23T00:32:36;45.63;;;20.97;;
21175;SDS011;10746;50.178;8.186;2023-02-23T00:35:03;42.67;;;20.03;;
21175;SDS011;10746;50.178;8.186;2023-02-23T00:37:35;45.87;;;20.97;;
21175;SDS011;10746;50.178;8.186;2023-02-23T00:40:04;47.80;;;19.93;;
21175;SDS011;10746;50.178;8.186;2023-02-23T00:42:40;43.40;;;20.10;;
21175;SDS011;10746;50.178;8.186;2023-02-23T00:45:07;46.77;;;21.93;;
21175;SDS011;10746;50.178;8.186;2023-02-23T00:47:36;41.67;;;20.97;;
21175;SDS011;10746;50.178;8.186;2023-02-23T00:50:03;47.37;;;22.10;;
21175;SDS011;10746;50.178;8.186;2023-02-23T00:52:31;45.67;;;20.87;;
21175;SDS011;10746;50.178;8.186;2023-02-23T00:54:58;70.77;;;27.30;;
21175;SDS011;10746;50.178;8.186;2023-02-23T00:57:25;52.23;;;22.20;;
21175;SDS011;10746;50.178;8.186;2023-02-23T00:59:53;45.63;;;22.03;;
21175;SDS011;10746;50.178;8.186;2023-02-23T01:02:19;51.20;;;22.63;;
21175;SDS011;10746;50.178;8.186;2023-02-23T01:04:46;50.17;;;21.87;;
21175;SDS011;10746;50.178;8.186;2023-02-23T01:07:13;42.20;;;19.33;;
21175;SDS011;10746;50.178;8.186;2023-02-23T01:09:39;46.30;;;18.73;;
21175;SDS011;10746;50.178;8.186;2023-02-23T01:12:07;46.43;;;21.00;;
21175;SDS011;10746;50.178;8.186;2023-02-23T01:14:34;51.07;;;22.20;;
21175;SDS011;10746;50.178;8.186;2023-02-23T01:17:04;49.17;;;22.30;;
21175;SDS011;10746;50.178;8.186;2023-02-23T01:19:31;55.10;;;23.83;;
21175;SDS011;10746;50.178;8.186;2023-02-23T01:21:58;53.30;;;21.53;;
21175;SDS011;10746;50.178;8.186;2023-02-23T01:24:26;47.30;;;21.63;;
21175;SDS011;10746;50.178;8.186;2023-02-23T01:26:53;48.20;;;22.83;;
21175;SDS011;10746;50.178;8.186;2023-02-23T01:29:20;49.60;;;22.97;;
21175;SDS011;10746;50.178;8.186;2023-02-23T01:31:48;51.57;;;23.77;;
21175;SDS011;10746;50.178;8.186;2023-02-23T01:34:17;53.30;;;22.47;;
21175;SDS011;10746;50.178;8.186;2023-02-23T01:36:45;54.30;;;23.60;;
21175;SDS011;10746;50.178;8.186;2023-02-23T01:39:13;49.90;;;23.20;;
21175;SDS011;10746;50.178;8.186;2023-02-23T01:41:42;52.10;;;23.57;;
21175;SDS011;10746;50.178;8.186;2023-02-23T01:47:09;52.80;;;22.20;;
21175;SDS011;10746;50.178;8.186;2023-02-23T01:49:40;42.67;;;21.40;;
21175;SDS011;10746;50.178;8.186;2023-02-23T01:52:07;45.43;;;21.83;;
21175;SDS011;10746;50.178;8.186;2023-02-23T01:54:39;49.97;;;22.73;;
21175;SDS011;10746;50.178;8.186;2023-02-23T01:57:09;48.93;;;21.53;;
21175;SDS011;10746;50.178;8.186;2023-02-23T01:59:40;49.77;;;21.47;;
21175;SDS011;10746;50.178;8.186;2023-02-23T02:02:09;47.23;;;21.90;;
21175;SDS011;10746;50.178;8.186;2023-02-23T02:04:38;45.08;;;21.23;;
21175;SDS011;10746;50.178;8.186;2023-02-23T02:07:09;46.90;;;21.07;;
21175;SDS011;10746;50.178;8.186;2023-02-23T02:09:38;44.63;;;20.70;;
21175;SDS011;10746;50.178;8.186;2023-02-23T02:12:25;47.63;;;21.30;;
21175;SDS011;10746;50.178;8.186;2023-02-23T02:14:52;43.43;;;20.87;;
21175;SDS011;10746;50.178;8.186;2023-02-23T02:17:22;39.07;;;20.90;;
21175;SDS011;10746;50.178;8.186;2023-02-23T02:20:00;44.03;;;19.57;;
21175;SDS011;10746;50.178;8.186;2023-02-23T02:23:02;38.53;;;18.23;;
21175;SDS011;10746;50.178;8.186;2023-02-23T02:25:55;39.40;;;19.53;;
21175;SDS011;10746;50.178;8.186;2023-02-23T02:31:56;44.90;;;21.53;;
21175;SDS011;10746;50.178;8.186;2023-02-23T02:34:47;43.40;;;19.93;;
21175;SDS011;10746;50.178;8.186;2023-02-23T02:37:38;42.10;;;19.77;;
21175;SDS011;10746;50.178;8.186;2023-02-23T02:40:14;40.77;;;19.70;;
21175;SDS011;10746;50.178;8.186;2023-02-23T02:42:55;45.17;;;20.97;;
21175;SDS011;10746;50.178;8.186;2023-02-23T02:45:26;47.33;;;20.67;;
21175;SDS011;10746;50.178;8.186;2023-02-23T02:48:02;51.73;;;21.97;;
21175;SDS011;10746;50.178;8.186;2023-02-23T02:50:39;43.80;;;20.07;;
21175;SDS011;10746;50.178;8.186;2023-02-23T02:53:12;49.03;;;19.43;;
21175;SDS011;10746;50.178;8.186;2023-02-23T02:55:44;48.60;;;19.63;;
21175;SDS011;10746;50.178;8.186;2023-02-23T02:58:13;43.80;;;17.67;;
21175;SDS011;10746;50.178;8.186;2023-02-23T03:00:43;38.77;;;17.90;;
21175;SDS011;10746;50.178;8.186;2023-02-23T03:03:31;41.50;;;18.97;;
21175;SDS011;10746;50.178;8.186;2023-02-23T03:06:17;46.70;;;20.37;;
21175;SDS011;10746;50.178;8.186;2023-02-23T03:09:06;41.53;;;19.37;;
21175;SDS011;10746;50.178;8.186;2023-02-23T03:12:05;49.93;;;21.33;;
21175;SDS011;10746;50.178;8.186;2023-02-23T03:14:54;45.15;;;20.40;;
21175;SDS011;10746;50.178;8.186;2023-02-23T03:17:47;50.43;;;20.90;;
21175;SDS011;10746;50.178;8.186;2023-02-23T03:20:42;47.67;;;20.20;;
21175;SDS011;10746;50.178;8.186;2023-02-23T03:23:31;45.30;;;19.27;;
21175;SDS011;10746;50.178;8.186;2023-02-23T03:26:25;45.13;;;20.30;;
21175;SDS011;10746;50.178;8.186;2023-02-23T03:29:15;47.90;;;19.67;;
21175;SDS011;10746;50.178;8.186;2023-02-23T03:32:06;53.47;;;21.10;;
21175;SDS011;10746;50.178;8.186;2023-02-23T03:34:57;50.00;;;20.83;;
21175;SDS011;10746;50.178;8.186;2023-02-23T03:37:49;54.37;;;20.77;;
21175;SDS011;10746;50.178;8.186;2023-02-23T03:40:37;52.77;;;21.53;;
21175;SDS011;10746;50.178;8.186;2023-02-23T03:43:26;48.83;;;21.80;;
21175;SDS011;10746;50.178;8.186;2023-02-23T03:46:16;57.10;;;21.90;;
21175;SDS011;10746;50.178;8.186;2023-02-23T03:49:03;47.47;;;20.30;;
21175;SDS011;10746;50.178;8.186;2023-02-23T03:51:50;52.63;;;21.00;;
21175;SDS011;10746;50.178;8.186;2023-02-23T03:54:42;52.87;;;21.03;;
21175;SDS011;10746;50.178;8.186;2023-02-23T03:57:30;50.17;;;21.70;;
21175;SDS011;10746;50.178;8.186;2023-02-23T04:00:19;45.73;;;20.47;;
21175;SDS011;10746;50.178;8.186;2023-02-23T04:03:08;44.97;;;19.73;;
21175;SDS011;10746;50.178;8.186;2023-02-23T04:05:53;46.43;;;20.63;;
21175;SDS011;10746;50.178;8.186;2023-02-23T04:08:40;43.30;;;19.67;;
21175;SDS011;10746;50.178;8.186;2023-02-23T04:11:26;44.20;;;18.67;;
21175;SDS011;10746;50.178;8.186;2023-02-23T04:14:16;47.47;;;20.80;;
21175;SDS011;10746;50.178;8.186;2023-02-23T04:16:49;44.47;;;20.10;;
21175;SDS011;10746;50.178;8.186;2023-02-23T04:19:15;46.43;;;19.93;;
21175;SDS011;10746;50.178;8.186;2023-02-23T04:21:42;42.20;;;18.93;;
21175;SDS011;10746;50.178;8.186;2023-02-23T04:24:09;45.13;;;19.03;;
21175;SDS011;10746;50.178;8.186;2023-02-23T04:26:36;41.83;;;18.73;;
21175;SDS011;10746;50.178;8.186;2023-02-23T04:29:02;42.97;;;18.13;;
21175;SDS011;10746;50.178;8.186;2023-02-23T04:31:29;41.53;;;18.50;;
21175;SDS011;10746;50.178;8.186;2023-02-23T04:33:57;43.90;;;20.43;;
21175;SDS011;10746;50.178;8.186;2023-02-23T04:36:24;60.70;;;18.77;;
21175;SDS011;10746;50.178;8.186;2023-02-23T04:38:52;44.10;;;19.63;;
21175;SDS011;10746;50.178;8.186;2023-02-23T04:41:19;58.17;;;21.40;;
21175;SDS011;10746;50.178;8.186;2023-02-23T04:43:45;46.00;;;20.70;;
21175;SDS011;10746;50.178;8.186;2023-02-23T04:46:12;46.10;;;20.23;;
21175;SDS011;10746;50.178;8.186;2023-02-23T04:48:39;44.87;;;19.83;;
21175;SDS011;10746;50.178;8.186;2023-02-23T04:51:07;47.53;;;20.63;;
21175;SDS011;10746;50.178;8.186;2023-02-23T04:53:34;83.07;;;21.17;;
21175;SDS011;10746;50.178;8.186;2023-02-23T04:56:00;51.60;;;19.83;;
21175;SDS011;10746;50.178;8.186;2023-02-23T04:58:28;45.73;;;19.63;;
21175;SDS011;10746;50.178;8.186;2023-02-23T05:00:56;39.03;;;18.37;;
21175;SDS011;10746;50.178;8.186;2023-02-23T05:03:30;42.83;;;18.67;;
21175;SDS011;10746;50.178;8.186;2023-02-23T05:05:56;74.77;;;18.97;;
21175;SDS011;10746;50.178;8.186;2023-02-23T05:08:24;34.97;;;17.70;;
21175;SDS011;10746;50.178;8.186;2023-02-23T05:10:51;38.10;;;17.67;;
21175;SDS011;10746;50.178;8.186;2023-02-23T05:13:18;98.57;;;18.53;;
21175;SDS011;10746;50.178;8.186;2023-02-23T05:15:45;129.20;;;18.70;;
21175;SDS011;10746;50.178;8.186;2023-02-23T05:18:11;151.83;;;20.30;;
21175;SDS011;10746;50.178;8.186;2023-02-23T05:20:40;124.20;;;19.67;;
21175;SDS011;10746;50.178;8.186;2023-02-23T05:23:08;39.70;;;16.77;;
21175;SDS011;10746;50.178;8.186;2023-02-23T05:25:37;108.80;;;18.40;;
21175;SDS011;10746;50.178;8.186;2023-02-23T05:28:05;38.63;;;15.97;;
21175;SDS011;10746;50.178;8.186;2023-02-23T05:30:31;45.80;;;16.77;;
21175;SDS011;10746;50.178;8.186;2023-02-23T05:32:58;37.30;;;17.00;;
21175;SDS011;10746;50.178;8.186;2023-02-23T05:35:25;31.63;;;16.17;;
21175;SDS011;10746;50.178;8.186;2023-02-23T05:37:52;35.63;;;16.67;;
21175;SDS011;10746;50.178;8.186;2023-02-23T05:40:18;39.43;;;16.77;;
21175;SDS011;10746;50.178;8.186;2023-02-23T05:42:46;36.53;;;16.20;;
21175;SDS011;10746;50.178;8.186;2023-02-23T05:45:13;36.40;;;15.20;;
21175;SDS011;10746;50.178;8.186;2023-02-23T05:47:40;41.67;;;16.87;;
21175;SDS011;10746;50.178;8.186;2023-02-23T05:50:07;36.07;;;15.73;;
21175;SDS011;10746;50.178;8.186;2023-02-23T05:52:36;37.10;;;16.20;;
21175;SDS011;10746;50.178;8.186;2023-02-23T05:55:06;34.63;;;15.40;;
21175;SDS011;10746;50.178;8.186;2023-02-23T05:57:34;36.07;;;16.60;;
21175;SDS011;10746;50.178;8.186;2023-02-23T06:00:03;39.40;;;16.37;;
21175;SDS011;10746;50.178;8.186;2023-02-23T06:02:31;33.10;;;15.23;;
21175;SDS011;10746;50.178;8.186;2023-02-23T06:04:59;44.60;;;17.30;;
21175;SDS011;10746;50.178;8.186;2023-02-23T06:07:26;39.67;;;15.87;;
21175;SDS011;10746;50.178;8.186;2023-02-23T06:09:52;46.03;;;15.73;;
21175;SDS011;10746;50.178;8.186;2023-02-23T06:12:19;97.60;;;18.00;;
21175;SDS011;10746;50.178;8.186;2023-02-23T06:14:47;55.47;;;16.60;;
21175;SDS011;10746;50.178;8.186;2023-02-23T06:17:16;99.17;;;17.67;;
21175;SDS011;10746;50.178;8.186;2023-02-23T06:19:43;80.07;;;17.37;;
21175;SDS011;10746;50.178;8.186;2023-02-23T06:22:10;50.60;;;16.87;;
21175;SDS011;10746;50.178;8.186;2023-02-23T06:24:37;77.67;;;17.87;;
21175;SDS011;10746;50.178;8.186;2023-02-23T06:27:03;136.73;;;19.70;;
21175;SDS011;10746;50.178;8.186;2023-02-23T06:29:31;154.73;;;19.87;;
21175;SDS011;10746;50.178;8.186;2023-02-23T06:31:58;91.70;;;18.60;;
21175;SDS011;10746;50.178;8.186;2023-02-23T06:34:26;49.37;;;16.97;;
21175;SDS011;10746;50.178;8.186;2023-02-23T06:36:53;35.60;;;15.77;;
21175;SDS011;10746;50.178;8.186;2023-02-23T06:39:20;48.50;;;17.00;;
21175;SDS011;10746;50.178;8.186;2023-02-23T06:41:46;48.07;;;16.97;;
21175;SDS011;10746;50.178;8.186;2023-02-23T06:44:13;35.00;;;15.87;;
21175;SDS011;10746;50.178;8.186;2023-02-23T06:46:40;49.53;;;16.50;;
21175;SDS011;10746;50.178;8.186;2023-02-23T06:49:07;172.03;;;19.90;;
21175;SDS011;10746;50.178;8.186;2023-02-23T06:51:36;129.13;;;19.17;;
21175;SDS011;10746;50.178;8.186;2023-02-23T06:54:03;82.80;;;18.03;;
21175;SDS011;10746;50.178;8.186;2023-02-23T06:56:30;100.50;;;18.20;;
21175;SDS011;10746;50.178;8.186;2023-02-23T06:58:57;90.40;;;18.50;;
21175;SDS011;10746;50.178;8.186;2023-02-23T07:01:24;86.20;;;18.40;;
21175;SDS011;10746;50.178;8.186;2023-02-23T07:03:50;98.37;;;17.27;;
21175;SDS011;10746;50.178;8.186;2023-02-23T07:06:17;69.43;;;17.40;;
21175;SDS011;10746;50.178;8.186;2023-02-23T07:08:45;88.07;;;18.53;;
21175;SDS011;10746;50.178;8.186;2023-02-23T07:11:13;214.63;;;23.07;;
21175;SDS011;10746;50.178;8.186;2023-02-23T07:13:40;91.83;;;19.67;;
21175;SDS011;10746;50.178;8.186;2023-02-23T07:16:07;141.40;;;19.80;;
21175;SDS011;10746;50.178;8.186;2023-02-23T07:18:35;94.00;;;18.07;;
21175;SDS011;10746;50.178;8.186;2023-02-23T07:21:01;268.13;;;25.80;;
21175;SDS011;10746;50.178;8.186;2023-02-23T07:23:28;126.20;;;19.63;;
21175;SDS011;10746;50.178;8.186;2023-02-23T07:25:56;105.97;;;19.67;;
21175;SDS011;10746;50.178;8.186;2023-02-23T07:28:25;140.43;;;20.80;;
21175;SDS011;10746;50.178;8.186;2023-02-23T07:30:54;89.43;;;18.17;;
21175;SDS011;10746;50.178;8.186;2023-02-23T07:33:21;43.30;;;17.70;;
21175;SDS011;10746;50.178;8.186;2023-02-23T07:35:48;51.50;;;17.20;;
21175;SDS011;10746;50.178;8.186;2023-02-23T07:38:16;53.37;;;17.53;;
21175;SDS011;10746;50.178;8.186;2023-02-23T07:40:43;50.00;;;16.70;;
21175;SDS011;10746;50.178;8.186;2023-02-23T07:43:11;102.57;;;20.57;;
21175;SDS011;10746;50.178;8.186;2023-02-23T07:45:38;51.30;;;18.00;;
21175;SDS011;10746;50.178;8.186;2023-02-23T07:48:05;84.73;;;19.10;;
21175;SDS011;10746;50.178;8.186;2023-02-23T07:50:32;97.33;;;21.27;;
21175;SDS011;10746;50.178;8.186;2023-02-23T07:52:59;41.73;;;16.30;;
21175;SDS011;10746;50.178;8.186;2023-02-23T07:55:27;43.97;;;16.77;;
21175;SDS011;10746;50.178;8.186;2023-02-23T07:57:54;45.77;;;16.90;;
21175;SDS011;10746;50.178;8.186;2023-02-23T08:00:23;44.13;;;16.97;;
21175;SDS011;10746;50.178;8.186;2023-02-23T08:02:51;44.77;;;16.77;;
21175;SDS011;10746;50.178;8.186;2023-02-23T08:05:18;51.50;;;16.77;;
21175;SDS011;10746;50.178;8.186;2023-02-23T08:07:45;49.77;;;18.47;;
21175;SDS011;10746;50.178;8.186;2023-02-23T08:10:12;41.40;;;16.97;;
21175;SDS011;10746;50.178;8.186;2023-02-23T08:12:38;42.10;;;17.63;;
21175;SDS011;10746;50.178;8.186;2023-02-23T08:15:05;42.07;;;16.87;;
21175;SDS011;10746;50.178;8.186;2023-02-23T08:17:34;43.77;;;17.00;;
21175;SDS011;10746;50.178;8.186;2023-02-23T08:20:01;39.73;;;16.93;;
21175;SDS011;10746;50.178;8.186;2023-02-23T08:22:28;39.97;;;15.40;;
21175;SDS011;10746;50.178;8.186;2023-02-23T08:24:57;40.87;;;15.40;;
21175;SDS011;10746;50.178;8.186;2023-02-23T08:27:24;41.50;;;16.37;;
21175;SDS011;10746;50.178;8.186;2023-02-23T08:29:53;35.37;;;15.40;;
21175;SDS011;10746;50.178;8.186;2023-02-23T08:32:21;39.43;;;15.93;;
21175;SDS011;10746;50.178;8.186;2023-02-23T08:34:49;36.60;;;15.70;;
21175;SDS011;10746;50.178;8.186;2023-02-23T08:37:16;38.43;;;15.30;;
21175;SDS011;10746;50.178;8.186;2023-02-23T08:39:42;40.93;;;15.90;;
21175;SDS011;10746;50.178;8.186;2023-02-23T08:42:09;35.53;;;15.40;;
21175;SDS011;10746;50.178;8.186;2023-02-23T08:44:36;31.57;;;15.00;;
21175;SDS011;10746;50.178;8.186;2023-02-23T08:47:02;38.13;;;15.67;;
21175;SDS011;10746;50.178;8.186;2023-02-23T08:49:29;32.83;;;14.73;;
21175;SDS011;10746;50.178;8.186;2023-02-23T08:51:58;32.93;;;14.60;;
21175;SDS011;10746;50.178;8.186;2023-02-23T08:54:25;32.03;;;15.33;;
21175;SDS011;10746;50.178;8.186;2023-02-23T08:56:54;32.93;;;14.90;;
21175;SDS011;10746;50.178;8.186;2023-02-23T08:59:21;29.60;;;13.90;;
21175;SDS011;10746;50.178;8.186;2023-02-23T09:01:49;25.63;;;13.05;;
21175;SDS011;10746;50.178;8.186;2023-02-23T09:04:16;30.47;;;14.53;;
21175;SDS011;10746;50.178;8.186;2023-02-23T09:06:43;26.63;;;12.73;;
21175;SDS011;10746;50.178;8.186;2023-02-23T09:09:12;28.17;;;13.70;;
21175;SDS011;10746;50.178;8.186;2023-02-23T09:11:39;20.70;;;9.80;;
21175;SDS011;10746;50.178;8.186;2023-02-23T09:14:06;22.77;;;12.40;;
21175;SDS011;10746;50.178;8.186;2023-02-23T09:16:33;17.87;;;9.90;;
21175;SDS011;10746;50.178;8.186;2023-02-23T09:19:00;19.40;;;9.30;;
21175;SDS011;10746;50.178;8.186;2023-02-23T09:21:28;16.30;;;9.40;;
21175;SDS011;10746;50.178;8.186;2023-02-23T09:23:58;17.38;;;8.65;;
21175;SDS011;10746;50.178;8.186;2023-02-23T09:26:26;14.80;;;8.25;;
21175;SDS011;10746;50.178;8.186;2023-02-23T09:28:53;17.23;;;9.32;;
21175;SDS011;10746;50.178;8.186;2023-02-23T09:31:21;18.08;;;9.30;;
21175;SDS011;10746;50.178;8.186;2023-02-23T09:33:48;14.20;;;7.95;;
21175;SDS011;10746;50.178;8.186;2023-02-23T09:36:17;16.23;;;8.35;;
21175;SDS011;10746;50.178;8.186;2023-02-23T09:38:45;13.63;;;7.60;;
21175;SDS011;10746;50.178;8.186;2023-02-23T09:44:20;14.02;;;8.23;;
21175;SDS011;10746;50.178;8.186;2023-02-23T09:46:56;15.60;;;7.90;;
21175;SDS011;10746;50.178;8.186;2023-02-23T09:49:31;9.45;;;6.80;;
21175;SDS011;10746;50.178;8.186;2023-02-23T09:52:05;12.00;;;7.28;;
21175;SDS011;10746;50.178;8.186;2023-02-23T09:54:40;11.63;;;6.20;;
21175;SDS011;10746;50.178;8.186;2023-02-23T09:57:09;11.20;;;6.53;;
21175;SDS011;10746;50.178;8.186;2023-02-23T09:59:40;9.48;;;5.72;;
21175;SDS011;10746;50.178;8.186;2023-02-23T10:02:09;7.95;;;5.70;;
21175;SDS011;10746;50.178;8.186;2023-02-23T10:04:46;9.95;;;6.15;;
21175;SDS011;10746;50.178;8.186;2023-02-23T10:07:17;9.75;;;6.25;;
21175;SDS011;10746;50.178;8.186;2023-02-23T10:09:52;12.10;;;6.22;;
21175;SDS011;10746;50.178;8.186;2023-02-23T10:12:36;9.90;;;6.28;;
21175;SDS011;10746;50.178;8.186;2023-02-23T10:15:15;7.40;;;5.38;;
21175;SDS011;10746;50.178;8.186;2023-02-23T10:17:53;10.43;;;6.18;;
21175;SDS011;10746;50.178;8.186;2023-02-23T10:20:28;10.68;;;6.07;;
21175;SDS011;10746;50.178;8.186;2023-02-23T10:23:02;12.90;;;5.53;;
21175;SDS011;10746;50.178;8.186;2023-02-23T10:25:33;11.98;;;6.50;;
21175;SDS011;10746;50.178;8.186;2023-02-23T10:28:04;9.40;;;6.07;;
21175;SDS011;10746;50.178;8.186;2023-02-23T10:30:36;8.00;;;5.47;;
21175;SDS011;10746;50.178;8.186;2023-02-23T10:33:09;9.80;;;6.15;;
21175;SDS011;10746;50.178;8.186;2023-02-23T10:35:41;12.23;;;6.82;;
21175;SDS011;10746;50.178;8.186;2023-02-23T10:38:09;11.63;;;7.07;;
21175;SDS011;10746;50.178;8.186;2023-02-23T10:40:39;13.50;;;7.38;;
21175;SDS011;10746;50.178;8.186;2023-02-23T10:43:09;10.43;;;7.05;;
21175;SDS011;10746;50.178;8.186;2023-02-23T10:45:38;10.07;;;6.05;;
21175;SDS011;10746;50.178;8.186;2023-02-23T10:48:12;13.55;;;7.07;;
21175;SDS011;10746;50.178;8.186;2023-02-23T10:50:42;10.60;;;6.88;;
21175;SDS011;10746;50.178;8.186;2023-02-23T10:53:10;11.07;;;7.18;;
21175;SDS011;10746;50.178;8.186;2023-02-23T10:55:41;13.85;;;7.15;;
21175;SDS011;10746;50.178;8.186;2023-02-23T10:58:11;12.77;;;7.13;;
21175;SDS011;10746;50.178;8.186;2023-02-23T11:00:49;11.45;;;7.13;;
21175;SDS011;10746;50.178;8.186;2023-02-23T11:03:22;15.07;;;7.38;;
21175;SDS011;10746;50.178;8.186;2023-02-23T11:05:52;14.77;;;8.40;;
21175;SDS011;10746;50.178;8.186;2023-02-23T11:08:20;14.90;;;8.77;;
21175;SDS011;10746;50.178;8.186;2023-02-23T11:10:57;20.80;;;9.30;;
21175;SDS011;10746;50.178;8.186;2023-02-23T11:13:34;15.33;;;9.47;;
21175;SDS011;10746;50.178;8.186;2023-02-23T11:16:04;19.37;;;10.13;;
21175;SDS011;10746;50.178;8.186;2023-02-23T11:18:35;18.40;;;10.02;;
21175;SDS011;10746;50.178;8.186;2023-02-23T11:21:07;16.60;;;9.83;;
21175;SDS011;10746;50.178;8.186;2023-02-23T11:23:36;17.37;;;10.03;;
21175;SDS011;10746;50.178;8.186;2023-02-23T11:26:06;19.90;;;11.23;;
21175;SDS011;10746;50.178;8.186;2023-02-23T11:28:49;24.02;;;11.38;;
21175;SDS011;10746;50.178;8.186;2023-02-23T11:31:18;22.27;;;11.27;;
21175;SDS011;10746;50.178;8.186;2023-02-23T11:33:47;27.35;;;12.82;;
21175;SDS011;10746;50.178;8.186;2023-02-23T11:36:16;23.60;;;12.23;;
21175;SDS011;10746;50.178;8.186;2023-02-23T11:38:55;22.53;;;12.37;;
21175;SDS011;10746;50.178;8.186;2023-02-23T11:41:28;21.77;;;12.37;;
21175;SDS011;10746;50.178;8.186;2023-02-23T11:43:58;26.27;;;13.10;;
21175;SDS011;10746;50.178;8.186;2023-02-23T11:46:26;22.97;;;12.77;;
21175;SDS011;10746;50.178;8.186;2023-02-23T11:48:55;24.70;;;12.77;;
21175;SDS011;10746;50.178;8.186;2023-02-23T11:51:25;23.67;;;12.00;;
21175;SDS011;10746;50.178;8.186;2023-02-23T11:53:55;21.30;;;12.23;;
21175;SDS011;10746;50.178;8.186;2023-02-23T11:56:23;22.33;;;12.63;;
21175;SDS011;10746;50.178;8.186;2023-02-23T11:58:52;23.00;;;12.35;;
21175;SDS011;10746;50.178;8.186;2023-02-23T12:01:22;22.90;;;12.70;;
21175;SDS011;10746;50.178;8.186;2023-02-23T12:04:00;23.02;;;12.52;;
21175;SDS011;10746;50.178;8.186;2023-02-23T12:06:28;24.23;;;12.82;;
21175;SDS011;10746;50.178;8.186;2023-02-23T12:08:58;33.03;;;14.40;;
21175;SDS011;10746;50.178;8.186;2023-02-23T12:11:31;22.08;;;11.70;;
21175;SDS011;10746;50.178;8.186;2023-02-23T12:14:02;20.47;;;12.63;;
21175;SDS011;10746;50.178;8.186;2023-02-23T12:16:38;23.83;;;12.95;;
21175;SDS011;10746;50.178;8.186;2023-02-23T12:19:10;24.30;;;13.18;;
21175;SDS011;10746;50.178;8.186;2023-02-23T12:21:52;20.58;;;11.85;;
21175;SDS011;10746;50.178;8.186;2023-02-23T12:24:27;19.77;;;11.52;;
21175;SDS011;10746;50.178;8.186;2023-02-23T12:27:06;22.85;;;12.00;;
21175;SDS011;10746;50.178;8.186;2023-02-23T12:29:39;18.42;;;11.05;;
21175;SDS011;10746;50.178;8.186;2023-02-23T12:32:15;22.48;;;11.13;;
21175;SDS011;10746;50.178;8.186;2023-02-23T12:34:46;22.48;;;12.10;;
21175;SDS011;10746;50.178;8.186;2023-02-23T12:37:19;18.95;;;11.15;;
21175;SDS011;10746;50.178;8.186;2023-02-23T12:39:55;21.30;;;11.70;;
21175;SDS011;10746;50.178;8.186;2023-02-23T12:42:30;24.65;;;12.90;;
21175;SDS011;10746;50.178;8.186;2023-02-23T12:45:05;25.27;;;12.00;;
21175;SDS011;10746;50.178;8.186;2023-02-23T12:47:41;20.88;;;12.30;;
21175;SDS011;10746;50.178;8.186;2023-02-23T12:50:13;21.55;;;12.32;;
21175;SDS011;10746;50.178;8.186;2023-02-23T12:52:46;23.75;;;11.75;;
21175;SDS011;10746;50.178;8.186;2023-02-23T12:55:20;20.27;;;10.68;;
21175;SDS011;10746;50.178;8.186;2023-02-23T12:57:56;23.88;;;11.65;;
21175;SDS011;10746;50.178;8.186;2023-02-23T13:00:32;29.08;;;15.98;;
21175;SDS011;10746;50.178;8.186;2023-02-23T13:06:15;32.83;;;17.02;;
21175;SDS011;10746;50.178;8.186;2023-02-23T13:08:53;37.38;;;18.55;;
21175;SDS011;10746;50.178;8.186;2023-02-23T13:11:31;35.22;;;18.10;;
21175;SDS011;10746;50.178;8.186;2023-02-23T13:14:25;38.63;;;18.20;;
21175;SDS011;10746;50.178;8.186;2023-02-23T13:16:56;37.53;;;18.57;;
21175;SDS011;10746;50.178;8.186;2023-02-23T13:19:28;39.97;;;18.92;;
21175;SDS011;10746;50.178;8.186;2023-02-23T13:22:05;41.53;;;19.20;;
21175;SDS011;10746;50.178;8.186;2023-02-23T13:24:42;47.03;;;22.27;;
21175;SDS011;10746;50.178;8.186;2023-02-23T13:27:14;44.53;;;21.33;;
21175;SDS011;10746;50.178;8.186;2023-02-23T13:29:47;46.97;;;23.20;;
21175;SDS011;10746;50.178;8.186;2023-02-23T13:32:17;52.63;;;22.50;;
21175;SDS011;10746;50.178;8.186;2023-02-23T13:34:47;50.20;;;23.10;;
21175;SDS011;10746;50.178;8.186;2023-02-23T13:37:20;50.20;;;22.67;;
21175;SDS011;10746;50.178;8.186;2023-02-23T13:39:53;47.97;;;22.10;;
21175;SDS011;10746;50.178;8.186;2023-02-23T13:42:39;48.30;;;22.07;;
21175;SDS011;10746;50.178;8.186;2023-02-23T13:47:57;47.20;;;22.83;;
21175;SDS011;10746;50.178;8.186;2023-02-23T13:50:34;48.00;;;21.67;;
21175;SDS011;10746;50.178;8.186;2023-02-23T13:53:35;43.42;;;20.60;;
21175;SDS011;10746;50.178;8.186;2023-02-23T13:56:07;46.70;;;21.43;;
21175;SDS011;10746;50.178;8.186;2023-02-23T13:58:35;46.43;;;20.67;;
21175;SDS011;10746;50.178;8.186;2023-02-23T14:01:04;41.42;;;19.98;;
21175;SDS011;10746;50.178;8.186;2023-02-23T14:03:39;41.20;;;19.15;;
21175;SDS011;10746;50.178;8.186;2023-02-23T14:06:17;36.28;;;17.40;;
21175;SDS011;10746;50.178;8.186;2023-02-23T14:08:51;33.47;;;17.45;;
21175;SDS011;10746;50.178;8.186;2023-02-23T14:11:27;32.38;;;16.17;;
21175;SDS011;10746;50.178;8.186;2023-02-23T14:14:01;29.67;;;15.95;;
21175;SDS011;10746;50.178;8.186;2023-02-23T14:16:29;29.25;;;14.57;;
21175;SDS011;10746;50.178;8.186;2023-02-23T14:19:13;29.95;;;14.50;;
21175;SDS011;10746;50.178;8.186;2023-02-23T14:21:56;24.25;;;13.40;;
21175;SDS011;10746;50.178;8.186;2023-02-23T14:24:27;26.90;;;14.13;;
21175;SDS011;10746;50.178;8.186;2023-02-23T14:27:10;27.77;;;15.15;;
21175;SDS011;10746;50.178;8.186;2023-02-23T14:29:48;26.98;;;14.57;;
21175;SDS011;10746;50.178;8.186;2023-02-23T14:32:39;27.15;;;15.18;;
21175;SDS011;10746;50.178;8.186;2023-02-23T14:35:34;28.00;;;14.68;;
21175;SDS011;10746;50.178;8.186;2023-02-23T14:38:04;29.50;;;15.07;;
21175;SDS011;10746;50.178;8.186;2023-02-23T14:40:39;29.02;;;14.15;;
21175;SDS011;10746;50.178;8.186;2023-02-23T14:45:57;31.98;;;15.52;;
21175;SDS011;10746;50.178;8.186;2023-02-23T14:48:26;33.58;;;15.07;;
21175;SDS011;10746;50.178;8.186;2023-02-23T14:51:07;31.90;;;15.87;;
21175;SDS011;10746;50.178;8.186;2023-02-23T14:53:40;28.08;;;14.95;;
21175;SDS011;10746;50.178;8.186;2023-02-23T14:56:17;33.08;;;15.55;;
21175;SDS011;10746;50.178;8.186;2023-02-23T14:58:48;26.65;;;14.63;;
21175;SDS011;10746;50.178;8.186;2023-02-23T15:01:30;29.52;;;14.95;;
21175;SDS011;10746;50.178;8.186;2023-02-23T15:04:05;29.50;;;14.50;;
21175;SDS011;10746;50.178;8.186;2023-02-23T15:06:36;29.52;;;13.95;;
21175;SDS011;10746;50.178;8.186;2023-02-23T15:09:05;23.37;;;13.07;;